Time;durP1;ratioP1;P1;durP2;ratioP2;P2;SDS_P1;SDS_P2;PMS_P1;PMS_P2;Temp;Humidity;BMP_temperature;BMP_pressure;BME280_temperature;BME280_humidity;BME280_pressure;Samples;Min_cycle;Max_cycle;Signal;HPM_P1;HPM_P2
2021/05/11 00:02:03;;;;;;;6.40;3.00;;;;;;;12.68;43.48;101062.59;125163;1102;104286;-77
2021/05/11 00:04:38;;;;;;;11.90;3.37;;;;;;;12.65;43.46;101061.59;125168;1100;104140;-76
2021/05/11 00:07:09;;;;;;;7.03;2.98;;;;;;;12.61;43.59;101062.34;125261;1100;104175;-76
2021/05/11 00:09:42;;;;;;;5.28;2.92;;;;;;;12.59;43.58;101060.54;125146;1099;104142;-76
2021/05/11 00:12:11;;;;;;;6.90;3.00;;;;;;;12.56;43.73;101049.89;125145;1100;104139;-76
2021/05/11 00:14:50;;;;;;;8.50;3.10;;;;;;;12.53;43.75;101055.05;125181;1099;104159;-76
2021/05/11 00:17:31;;;;;;;5.97;3.00;;;;;;;12.50;44.03;101052.30;125122;1102;104146;-76
2021/05/11 00:20:02;;;;;;;7.50;3.30;;;;;;;12.48;44.16;101051.36;125132;1100;104153;-76
2021/05/11 00:22:35;;;;;;;6.00;3.20;;;;;;;12.46;44.04;101053.02;125188;1099;104261;-78
2021/05/11 00:25:14;;;;;;;5.50;3.00;;;;;;;12.45;44.16;101048.62;125229;1100;104149;-76
2021/05/11 00:27:46;;;;;;;8.87;3.10;;;;;;;12.41;44.23;101047.59;125160;1099;104159;-76
2021/05/11 00:30:21;;;;;;;11.63;3.37;;;;;;;12.39;44.21;101045.76;125158;1099;104137;-76
2021/05/11 00:32:58;;;;;;;6.17;3.60;;;;;;;12.33;44.20;101035.00;125257;1101;104149;-76
2021/05/11 00:35:54;;;;;;;6.80;3.63;;;;;;;12.29;44.29;101033.97;125255;1102;104538;-77
2021/05/11 00:38:28;;;;;;;7.17;3.60;;;;;;;12.27;44.72;101037.41;125171;1099;104706;-77
2021/05/11 00:40:58;;;;;;;9.90;3.50;;;;;;;12.26;44.29;101032.97;125064;1102;104589;-77
2021/05/11 00:43:28;;;;;;;8.07;3.47;;;;;;;12.24;44.76;101035.55;125194;1102;104483;-77
2021/05/11 00:45:58;;;;;;;8.73;3.73;;;;;;;12.21;44.68;101031.05;125208;1102;104174;-77
2021/05/11 00:48:28;;;;;;;8.73;3.60;;;;;;;12.16;44.74;101035.25;125158;1102;105338;-76
2021/05/11 00:50:57;;;;;;;6.27;3.27;;;;;;;12.12;44.79;101030.70;125157;1102;104184;-77
2021/05/11 00:53:26;;;;;;;7.97;3.50;;;;;;;12.07;44.78;101029.64;125152;1102;104172;-76
2021/05/11 00:55:56;;;;;;;9.40;3.60;;;;;;;12.04;45.02;101032.16;125174;1100;104334;-77
2021/05/11 00:58:26;;;;;;;11.13;4.07;;;;;;;12.00;45.02;101028.52;125057;1102;104245;-77
2021/05/11 01:00:55;;;;;;;12.37;4.20;;;;;;;11.98;45.28;101034.55;125155;1102;104150;-77
2021/05/11 01:03:25;;;;;;;10.30;3.60;;;;;;;11.95;45.30;101034.43;125110;1102;104206;-76
2021/05/11 01:05:54;;;;;;;12.03;4.63;;;;;;;11.85;45.50;101043.67;125193;1102;104245;-76
2021/05/11 01:08:24;;;;;;;13.60;5.00;;;;;;;11.70;46.01;101051.84;125121;1102;104146;-76
2021/05/11 01:10:53;;;;;;;15.80;6.13;;;;;;;11.56;46.21;101050.39;125177;1102;104155;-77
2021/05/11 01:13:23;;;;;;;15.53;6.70;;;;;;;11.45;46.09;101056.13;125248;1102;104191;-77
2021/05/11 01:15:52;;;;;;;21.10;7.53;;;;;;;11.39;46.87;101047.08;125155;1102;104203;-78
2021/05/11 01:18:33;;;;;;;20.30;7.70;;;;;;;11.36;46.92;101049.58;125172;1102;104124;-78
2021/05/11 01:21:22;;;;;;;16.50;6.67;;;;;;;11.31;46.59;101052.93;125226;1102;104280;-77
2021/05/11 01:24:04;;;;;;;16.45;6.90;;;;;;;11.20;47.18;101046.31;125174;1099;104142;-77
2021/05/11 01:26:41;;;;;;;13.93;5.73;;;;;;;11.18;47.62;101045.36;125100;1099;104149;-77
2021/05/11 01:29:22;;;;;;;15.65;5.95;;;;;;;11.14;47.32;101049.59;125139;1099;104216;-77
2021/05/11 01:32:17;;;;;;;16.35;6.20;;;;;;;11.15;47.46;101051.37;125151;1102;104327;-77
2021/05/11 01:48:34;;;;;;;13.90;5.67;;;;;;;11.13;48.17;101053.05;125076;1102;104313;-76
2021/05/11 01:51:17;;;;;;;12.47;5.47;;;;;;;11.14;48.48;101057.48;125073;1102;104192;-76
2021/05/11 01:54:06;;;;;;;16.27;5.50;;;;;;;11.17;48.56;101068.94;125128;1099;104576;-77
2021/05/11 01:56:54;;;;;;;14.67;5.37;;;;;;;11.18;48.79;101055.87;125192;1099;104711;-76
2021/05/11 02:23:50;;;;;;;10.82;5.00;;;;;;;10.85;49.99;101053.60;125164;1102;104141;-76
2021/05/11 02:26:19;;;;;;;11.00;5.00;;;;;;;10.84;49.43;101053.53;125220;1102;104213;-76
2021/05/11 02:28:49;;;;;;;11.83;4.93;;;;;;;10.81;49.38;101053.40;125106;1102;104303;-76
2021/05/11 02:31:18;;;;;;;11.47;4.70;;;;;;;10.76;49.45;101050.58;125088;1102;104166;-77
2021/05/11 02:33:47;;;;;;;13.43;4.67;;;;;;;10.73;49.81;101061.83;125192;1102;104237;-77
2021/05/11 02:36:16;;;;;;;15.83;4.93;;;;;;;10.69;50.21;101051.13;125147;1102;104172;-76
2021/05/11 02:38:46;;;;;;;10.57;4.20;;;;;;;10.64;49.67;101047.41;125106;1099;104249;-75
2021/05/11 02:41:15;;;;;;;10.07;4.50;;;;;;;10.62;49.47;101047.34;125095;1099;104220;-76
2021/05/11 02:43:45;;;;;;;9.20;4.30;;;;;;;10.61;49.59;101048.16;125183;1099;104242;-77
2021/05/11 02:46:14;;;;;;;7.80;4.00;;;;;;;10.59;50.21;101049.83;125179;1099;104156;-77
2021/05/11 02:48:43;;;;;;;13.10;4.90;;;;;;;10.58;50.20;101056.81;125204;1099;104168;-77
2021/05/11 02:51:13;;;;;;;7.60;4.10;;;;;;;10.56;50.22;101058.45;125135;1099;104152;-78
2021/05/11 02:53:42;;;;;;;10.40;4.10;;;;;;;10.53;50.38;101057.42;125055;1099;104181;-78
2021/05/11 02:56:11;;;;;;;8.43;4.40;;;;;;;10.51;50.10;101053.84;125153;1099;104743;-78
2021/05/11 02:58:42;;;;;;;16.03;4.27;;;;;;;10.49;50.00;101063.39;125068;1099;104906;-78
2021/05/11 03:01:11;;;;;;;11.03;5.27;;;;;;;10.39;50.52;101060.34;125984;1098;104248;-78
2021/05/11 03:03:41;;;;;;;13.77;5.33;;;;;;;10.38;50.03;101058.54;126083;1099;104261;-78
2021/05/11 03:06:11;;;;;;;14.77;5.00;;;;;;;10.40;50.91;101042.87;126197;1099;104153;-77
2021/05/11 03:08:43;;;;;;;12.03;4.37;;;;;;;10.40;50.58;101038.51;126334;1099;104225;-76
2021/05/11 03:11:13;;;;;;;10.87;4.33;;;;;;;10.41;50.61;101042.94;126262;1099;104858;-76
2021/05/11 03:13:43;;;;;;;7.67;4.50;;;;;;;10.42;51.02;101049.07;126238;1099;104670;-77
2021/05/11 03:16:14;;;;;;;14.87;5.43;;;;;;;10.38;51.16;101053.29;126282;1099;104143;-78
2021/05/11 03:18:48;;;;;;;12.33;5.37;;;;;;;10.32;51.23;101042.48;126263;1099;104406;-77
2021/05/11 03:21:26;;;;;;;16.60;6.00;;;;;;;10.25;51.38;101043.94;126178;1099;104146;-77
2021/05/11 03:24:08;;;;;;;16.47;5.80;;;;;;;10.22;51.74;101046.42;126274;1098;104140;-76
2021/05/11 03:26:39;;;;;;;17.60;5.60;;;;;;;10.13;51.88;101051.25;126335;1099;104152;-76
2021/05/11 03:29:09;;;;;;;14.90;5.23;;;;;;;10.05;52.03;101056.13;126211;1099;104256;-77
2021/05/11 03:31:38;;;;;;;15.47;6.20;;;;;;;10.04;51.51;101063.92;126191;1099;104169;-76
2021/05/11 03:34:07;;;;;;;15.30;6.15;;;;;;;10.01;52.04;101048.05;126217;1099;104139;-76
2021/05/11 03:36:37;;;;;;;14.67;5.97;;;;;;;10.05;51.75;101048.27;126249;1098;104139;-76
2021/05/11 03:39:08;;;;;;;11.63;4.93;;;;;;;10.09;52.36;101059.78;126225;1099;104146;-76
2021/05/11 03:41:43;;;;;;;12.93;5.30;;;;;;;10.08;52.24;101060.59;126170;1099;104268;-76
2021/05/11 03:44:15;;;;;;;11.03;4.80;;;;;;;10.08;52.21;101061.52;126226;1099;104140;-76
2021/05/11 03:46:44;;;;;;;13.53;5.07;;;;;;;10.19;52.10;101063.72;126295;1099;104174;-78
2021/05/11 03:49:14;;;;;;;14.80;5.13;;;;;;;10.34;52.59;101068.82;126223;1099;104168;-77
2021/05/11 03:51:44;;;;;;;12.37;4.97;;;;;;;10.45;52.48;101061.44;126152;1099;104213;-78
2021/05/11 03:54:14;;;;;;;11.47;5.13;;;;;;;10.55;52.48;101058.38;126246;1099;104143;-78
2021/05/11 03:56:43;;;;;;;14.57;5.07;;;;;;;10.59;52.54;101052.45;126062;1099;104303;-78
2021/05/11 03:59:13;;;;;;;11.93;5.20;;;;;;;10.63;51.99;101049.14;126103;1099;104566;-77
2021/05/11 04:01:43;;;;;;;17.37;4.90;;;;;;;10.63;52.07;101048.23;126186;1099;104242;-77
2021/05/11 04:04:12;;;;;;;14.20;4.60;;;;;;;10.61;52.15;101054.33;126119;1099;104188;-78
2021/05/11 04:06:45;;;;;;;9.77;4.50;;;;;;;10.60;52.64;101049.89;126055;1099;104337;-78
2021/05/11 04:09:19;;;;;;;11.53;4.63;;;;;;;10.58;52.16;101048.94;126051;1099;104181;-78
2021/05/11 04:12:06;;;;;;;10.10;4.77;;;;;;;10.63;52.54;101051.77;125981;1099;104166;-77
2021/05/11 04:17:19;;;;;;;12.63;5.10;;;;;;;10.70;52.49;101032.81;126184;1099;104146;-76
2021/05/11 04:19:48;;;;;;;9.40;4.63;;;;;;;10.74;52.79;101040.01;126182;1099;104140;-76
2021/05/11 04:22:18;;;;;;;11.05;4.95;;;;;;;10.77;52.54;101027.02;126075;1099;103963;-75
2021/05/11 04:24:47;;;;;;;13.20;5.10;;;;;;;10.82;52.87;101031.58;126247;1099;104130;-76
2021/05/11 04:27:16;;;;;;;11.35;5.00;;;;;;;10.88;52.79;101029.22;126234;1099;104216;-77
2021/05/11 04:29:48;;;;;;;14.40;4.57;;;;;;;10.97;52.66;101029.61;126245;1099;104191;-77
2021/05/11 04:32:18;;;;;;;14.90;4.37;;;;;;;11.06;52.62;101035.22;126182;1099;104236;-78
2021/05/11 04:34:47;;;;;;;17.17;4.67;;;;;;;11.15;52.81;101040.86;126027;1099;104194;-78
2021/05/11 04:37:17;;;;;;;16.40;5.47;;;;;;;11.22;52.98;101030.61;126089;1099;105121;-78
2021/05/11 04:39:47;;;;;;;11.87;4.80;;;;;;;11.29;52.98;101033.56;126062;1099;104200;-79
2021/05/11 04:42:16;;;;;;;15.07;4.70;;;;;;;11.35;53.09;101038.18;125920;1099;104253;-78
2021/05/11 04:44:46;;;;;;;13.33;5.07;;;;;;;11.43;53.05;101035.87;125937;1099;104187;-79
2021/05/11 04:47:17;;;;;;;10.77;4.50;;;;;;;11.48;53.20;101043.12;125999;1099;104152;-79
2021/05/11 04:49:47;;;;;;;9.73;4.77;;;;;;;11.51;53.05;101037.98;126023;1099;104178;-76
2021/05/11 04:52:17;;;;;;;12.63;4.80;;;;;;;11.55;53.21;101036.37;126117;1099;104178;-77
2021/05/11 04:54:46;;;;;;;10.60;5.00;;;;;;;11.62;53.34;101035.76;126085;1099;104187;-77
2021/05/11 04:57:16;;;;;;;12.00;4.90;;;;;;;11.71;53.05;101039.61;126035;1099;104235;-77
2021/05/11 04:59:48;;;;;;;8.33;4.40;;;;;;;11.76;53.12;101033.67;125991;1099;104347;-79
2021/05/11 05:02:18;;;;;;;11.53;5.30;;;;;;;11.81;53.03;101029.52;126098;1099;104140;-76
2021/05/11 05:04:48;;;;;;;12.77;5.03;;;;;;;11.85;53.20;101025.27;125951;1099;104297;-78
2021/05/11 05:07:17;;;;;;;13.20;4.77;;;;;;;11.93;53.59;101030.86;125893;1099;104344;-77
2021/05/11 05:09:47;;;;;;;12.90;5.20;;;;;;;12.00;53.49;101025.01;125954;1099;104316;-78
2021/05/11 05:12:20;;;;;;;12.30;4.70;;;;;;;12.09;53.75;101027.98;125821;1099;104168;-78
2021/05/11 05:14:49;;;;;;;10.93;4.70;;;;;;;12.18;53.63;101033.56;125875;1099;104181;-80
2021/05/11 05:17:19;;;;;;;12.57;4.90;;;;;;;12.29;53.73;101027.83;125933;1099;104259;-80
2021/05/11 05:19:48;;;;;;;12.37;4.60;;;;;;;12.41;53.54;101031.80;126064;1099;104181;-79
2021/05/11 05:22:18;;;;;;;13.63;5.00;;;;;;;12.52;53.45;101029.55;125173;1099;104269;-79
2021/05/11 05:24:50;;;;;;;13.00;4.77;;;;;;;12.62;53.66;101030.80;125944;1099;104293;-79
2021/05/11 05:27:23;;;;;;;12.00;4.30;;;;;;;12.75;53.54;101029.50;125828;1099;104188;-78
2021/05/11 05:29:53;;;;;;;7.50;4.00;;;;;;;12.88;53.58;101025.55;125969;1098;104282;-78
2021/05/11 05:32:22;;;;;;;12.40;4.00;;;;;;;12.98;53.66;101019.77;125930;1099;104242;-77
2021/05/11 05:34:52;;;;;;;10.60;3.70;;;;;;;13.09;53.49;101028.03;125776;1099;104201;-77
2021/05/11 05:37:21;;;;;;;7.73;3.90;;;;;;;13.19;53.08;101021.33;125725;1099;104188;-77
2021/05/11 05:39:55;;;;;;;9.77;3.87;;;;;;;13.25;53.36;101019.78;125973;1099;104153;-78
2021/05/11 05:42:25;;;;;;;9.40;3.97;;;;;;;13.36;53.39;101024.55;125844;1099;104172;-77
2021/05/11 05:44:54;;;;;;;12.13;4.37;;;;;;;13.41;52.84;101022.95;125790;1099;104171;-77
2021/05/11 05:47:24;;;;;;;13.30;4.60;;;;;;;13.45;52.83;101022.22;125843;1099;104300;-80
2021/05/11 05:49:59;;;;;;;13.03;3.93;;;;;;;13.53;52.70;101023.34;125735;1099;104450;-78
2021/05/11 05:52:38;;;;;;;10.30;4.30;;;;;;;13.65;52.76;101020.22;125862;1099;104201;-79
2021/05/11 05:55:09;;;;;;;12.77;4.20;;;;;;;13.76;53.21;101015.25;125794;1099;104239;-79
2021/05/11 05:57:39;;;;;;;13.30;3.90;;;;;;;13.87;52.66;101016.50;125911;1099;104242;-78
2021/05/11 06:00:13;;;;;;;9.77;3.70;;;;;;;13.98;52.54;101019.46;125843;1099;104249;-79
2021/05/11 06:02:48;;;;;;;14.37;4.00;;;;;;;14.09;52.25;101011.87;126227;1099;104227;-78
2021/05/11 06:05:19;;;;;;;10.30;3.30;;;;;;;14.23;52.82;101012.23;125754;1099;104169;-78
2021/05/11 06:07:52;;;;;;;14.77;4.00;;;;;;;14.34;52.34;101021.39;125821;1099;104160;-81
2021/05/11 06:10:25;;;;;;;6.90;3.70;;;;;;;14.46;52.01;101013.81;125817;1099;104172;-80
2021/05/11 06:13:03;;;;;;;7.85;3.47;;;;;;;14.54;52.12;101009.63;125779;1099;104195;-79
2021/05/11 06:18:23;;;;;;;9.70;3.80;;;;;;;14.79;52.29;101004.13;125755;1099;104153;-79
2021/05/11 06:20:55;;;;;;;12.60;3.70;;;;;;;14.87;51.88;101003.50;125731;1099;104642;-77
2021/05/11 06:23:27;;;;;;;13.50;4.13;;;;;;;14.98;52.57;100990.56;125819;1099;104209;-79
2021/05/11 06:25:59;;;;;;;8.80;3.98;;;;;;;15.10;51.73;100989.99;125727;1099;104185;-78
2021/05/11 06:28:31;;;;;;;7.67;3.80;;;;;;;15.22;51.68;100986.73;125852;1099;104306;-78
2021/05/11 06:31:03;;;;;;;10.30;4.37;;;;;;;15.32;52.30;100985.20;125868;1099;103207;-77
2021/05/11 06:33:34;;;;;;;10.70;3.80;;;;;;;15.47;51.34;100988.22;126008;1099;104284;-78
2021/05/11 06:36:04;;;;;;;10.90;3.97;;;;;;;15.60;52.12;100981.48;125958;1099;104251;-78
2021/05/11 06:38:33;;;;;;;12.63;3.87;;;;;;;15.72;51.75;100987.05;125931;1099;104271;-76
2021/05/11 06:41:10;;;;;;;10.03;3.87;;;;;;;15.86;51.84;100991.77;125950;1099;104214;-78
2021/05/11 06:43:42;;;;;;;;;;;;;;;16.02;50.59;100985.96;125930;1099;104226;-79
2021/05/11 06:46:44;;;;;;;11.33;3.80;;;;;;;16.25;51.20;100989.09;125701;1099;104310;-80
2021/05/11 06:54:40;;;;;;;13.90;4.03;;;;;;;16.85;49.79;100990.20;125056;1099;104134;-81
2021/05/11 06:57:11;;;;;;;10.80;3.60;;;;;;;17.03;49.34;100991.41;125055;1102;102522;-79
2021/05/11 06:59:41;;;;;;;7.70;3.37;;;;;;;17.28;48.99;100997.13;125089;1099;104361;-77
2021/05/11 07:02:14;;;;;;;6.90;2.90;;;;;;;17.47;48.27;100996.56;125151;1099;104172;-79
2021/05/11 07:04:46;;;;;;;7.77;2.90;;;;;;;17.66;47.93;100994.19;125208;1099;104473;-79
2021/05/11 07:07:17;;;;;;;8.80;2.60;;;;;;;17.90;47.92;100989.27;125018;1099;107648;-80
2021/05/11 07:10:01;;;;;;;4.33;2.70;;;;;;;18.17;47.44;100986.91;125014;1099;104417;-80
2021/05/11 07:15:15;;;;;;;8.03;2.57;;;;;;;18.53;46.44;100986.47;125057;1099;104316;-78
2021/05/11 07:17:45;;;;;;;7.30;2.60;;;;;;;18.72;45.46;100976.03;124956;1099;117876;-77
2021/05/11 07:20:16;;;;;;;4.90;2.50;;;;;;;18.89;45.68;100971.78;125228;1099;104510;-77
2021/05/11 07:22:47;;;;;;;8.63;2.80;;;;;;;19.16;44.99;100972.89;125083;1099;104165;-79
2021/05/11 07:25:23;;;;;;;7.00;2.53;;;;;;;19.36;44.05;100971.27;125682;1099;104044;-79
2021/05/11 07:28:18;;;;;;;3.70;2.30;;;;;;;19.37;41.93;100978.38;125742;1099;106921;-76
2021/05/11 07:30:49;;;;;;;3.27;2.50;;;;;;;19.45;42.36;100967.79;125699;1099;104175;-77
2021/05/11 07:33:21;;;;;;;7.73;3.13;;;;;;;19.55;42.12;100971.39;126185;1099;104149;-79
2021/05/11 07:35:51;;;;;;;8.43;2.50;;;;;;;19.67;42.06;100967.92;125719;1099;104383;-79
2021/05/11 07:38:23;;;;;;;4.47;2.70;;;;;;;19.73;41.69;100968.84;125749;1099;111171;-77
2021/05/11 07:40:55;;;;;;;4.73;2.47;;;;;;;19.80;40.80;100966.25;125787;1099;104191;-78
2021/05/11 07:43:28;;;;;;;3.37;2.30;;;;;;;19.90;40.20;100965.42;126079;1099;104212;-78
2021/05/11 07:46:19;;;;;;;3.07;2.60;;;;;;;19.91;40.85;100965.42;125958;1098;104945;-78
2021/05/11 08:05:41;;;;;;;;;;;;;;;20.89;36.88;100944.37;125118;1099;104443;-78
2021/05/11 08:19:49;;;;;;;3.13;2.47;;;;;;;20.98;36.31;100931.03;124959;1099;110211;-79
2021/05/11 08:28:11;;;;;;;6.30;2.90;;;;;;;21.10;35.81;100911.44;125022;1102;104165;-76
2021/05/11 08:30:41;;;;;;;5.30;2.70;;;;;;;21.27;36.28;100912.33;125055;1102;104190;-76
2021/05/11 08:33:17;;;;;;;10.00;2.83;;;;;;;21.37;35.96;100906.05;124998;1102;104175;-78
2021/05/11 08:35:51;;;;;;;3.10;2.53;;;;;;;21.46;35.38;100910.50;124768;1102;104307;-77
2021/05/11 08:38:21;;;;;;;;;;;;;;;21.41;30.40;100908.72;125007;1101;104213;-76
2021/05/11 08:40:52;;;;;;;3.47;2.30;;;;;;;21.24;34.13;100893.65;124986;1102;104216;-78
2021/05/11 08:43:34;;;;;;;7.70;2.70;;;;;;;21.31;33.75;100897.19;124787;1102;104168;-77
2021/05/11 08:46:08;;;;;;;5.90;2.92;;;;;;;21.44;33.11;100898.95;124886;1102;104178;-76
2021/05/11 08:48:38;;;;;;;3.80;2.40;;;;;;;21.44;32.86;100893.61;125091;1102;104130;-76
2021/05/11 08:51:23;;;;;;;3.17;2.20;;;;;;;21.32;31.67;100898.97;125003;1102;104255;-76
2021/05/11 09:05:28;;;;;;;6.97;2.93;;;;;;;21.10;29.78;100882.09;124747;1105;105800;-79
2021/05/11 09:08:48;;;;;;;7.73;2.97;;;;;;;21.16;30.91;100876.74;124923;1102;104232;-78
2021/05/11 09:25:48;;;;;;;5.00;2.40;;;;;;;21.48;30.21;100865.98;124958;1102;104230;-79
2021/05/11 09:28:31;;;;;;;4.10;2.37;;;;;;;21.51;29.20;100860.67;124976;1102;104407;-78
2021/05/11 09:31:14;;;;;;;4.20;2.50;;;;;;;21.52;29.31;100853.57;124985;1102;104185;-79
2021/05/11 09:33:52;;;;;;;4.67;2.57;;;;;;;21.52;28.76;100857.12;124914;1102;104329;-78
2021/05/11 10:48:40;;;;;;;4.80;2.17;;;;;;;22.69;27.42;100777.97;124955;1102;104287;-78
2021/05/11 10:51:28;;;;;;;6.85;2.50;;;;;;;22.68;26.68;100770.84;125068;1101;104300;-77
2021/05/11 10:54:04;;;;;;;5.83;2.47;;;;;;;22.68;26.96;100769.96;125082;1102;104229;-78
2021/05/11 10:56:48;;;;;;;9.80;2.73;;;;;;;22.66;27.41;100761.05;125051;1102;104357;-78
2021/05/11 11:05:43;;;;;;;4.70;2.33;;;;;;;22.92;27.51;100758.09;125363;1099;104235;-79
2021/05/11 11:08:57;;;;;;;3.30;2.13;;;;;;;23.05;27.56;100753.52;125879;1099;104249;-79
2021/05/11 11:11:38;;;;;;;6.30;2.40;;;;;;;23.13;27.75;100743.62;125286;1099;104195;-78
2021/05/11 11:14:13;;;;;;;6.60;2.30;;;;;;;23.10;27.16;100740.98;125810;1099;104236;-79
2021/05/11 11:16:43;;;;;;;6.00;2.80;;;;;;;23.01;26.84;100741.94;125837;1099;104159;-78
2021/05/11 11:19:17;;;;;;;7.43;2.87;;;;;;;22.98;27.24;100736.62;125869;1099;104168;-79
2021/05/11 11:22:00;;;;;;;5.33;2.50;;;;;;;23.01;27.10;100736.59;125721;1099;104821;-78
2021/05/11 11:24:37;;;;;;;5.53;2.37;;;;;;;23.08;27.21;100742.77;125589;1099;104166;-80
2021/05/11 11:27:08;;;;;;;2.97;2.00;;;;;;;23.08;27.25;100732.07;125658;1099;104258;-78
2021/05/11 11:29:38;;;;;;;9.27;2.70;;;;;;;23.07;26.78;100725.81;125791;1099;104166;-77
2021/05/11 11:32:08;;;;;;;3.47;2.40;;;;;;;23.12;27.24;100720.44;125793;1099;104264;-80
2021/05/11 11:34:43;;;;;;;6.80;2.17;;;;;;;23.18;27.08;100717.68;125891;1099;104252;-78
2021/05/11 11:37:16;;;;;;;5.87;2.20;;;;;;;23.18;27.07;100723.03;126102;1099;104165;-80
2021/05/11 11:39:50;;;;;;;5.43;2.03;;;;;;;23.20;27.30;100707.83;126186;1099;104206;-79
2021/05/11 11:42:23;;;;;;;5.47;2.50;;;;;;;23.24;26.76;100704.22;126128;1099;104130;-78
2021/05/11 11:44:57;;;;;;;4.63;2.33;;;;;;;23.26;26.87;100713.10;126070;1099;104165;-76
2021/05/11 11:47:27;;;;;;;5.83;2.20;;;;;;;23.22;27.08;100698.01;125987;1099;104620;-77
2021/05/11 11:50:06;;;;;;;4.93;2.23;;;;;;;23.27;27.15;100706.85;125771;1099;104859;-77
2021/05/11 11:52:45;;;;;;;4.57;2.43;;;;;;;23.31;26.96;100691.63;125476;1099;104224;-77
2021/05/11 11:58:04;;;;;;;3.90;2.30;;;;;;;23.39;27.30;100694.20;125791;1098;102142;-77
2021/05/11 12:00:40;;;;;;;7.97;2.60;;;;;;;23.38;27.41;100687.09;125770;1099;104506;-78
2021/05/11 12:03:15;;;;;;;6.03;2.35;;;;;;;23.43;27.56;100696.81;125776;1099;104763;-78
2021/05/11 12:05:49;;;;;;;5.53;2.30;;;;;;;23.48;27.50;100694.06;125832;1099;104229;-78
2021/05/11 12:08:22;;;;;;;5.73;2.40;;;;;;;23.46;27.29;100690.53;126002;1099;104172;-76
2021/05/11 12:10:55;;;;;;;7.13;2.27;;;;;;;23.46;27.21;100687.86;125872;1099;104165;-77
2021/05/11 12:13:27;;;;;;;5.20;2.30;;;;;;;23.51;27.36;100689.57;125978;1099;104214;-78
2021/05/11 12:16:13;;;;;;;4.43;2.27;;;;;;;23.54;27.46;100685.06;125964;1099;104175;-77
2021/05/11 12:19:03;;;;;;;5.33;2.30;;;;;;;23.55;27.67;100682.37;125995;1099;104579;-77
2021/05/11 12:21:35;;;;;;;6.87;2.47;;;;;;;23.61;28.00;100682.27;126225;1099;104201;-76
2021/05/11 12:24:13;;;;;;;4.87;2.20;;;;;;;23.58;27.55;100673.41;126118;1098;104210;-77
2021/05/11 12:26:45;;;;;;;6.93;2.70;;;;;;;23.55;27.44;100674.33;125851;1099;105540;-77
2021/05/11 12:29:17;;;;;;;6.53;2.23;;;;;;;23.58;28.01;100666.25;125938;1099;104220;-78
2021/05/11 12:31:50;;;;;;;5.22;1.92;;;;;;;23.64;27.38;100668.84;125937;1099;104210;-78
2021/05/11 12:34:25;;;;;;;4.23;2.03;;;;;;;23.67;27.82;100668.79;125989;1099;104040;-78
2021/05/11 12:37:01;;;;;;;4.87;2.13;;;;;;;23.71;27.97;100664.26;125947;1099;104236;-78
2021/05/11 12:39:42;;;;;;;4.63;2.60;;;;;;;23.72;27.35;100665.13;125891;1099;104146;-79
2021/05/11 12:42:22;;;;;;;5.23;2.50;;;;;;;23.68;27.29;100662.53;125821;1099;103077;-79
2021/05/11 12:45:04;;;;;;;8.93;2.70;;;;;;;23.68;27.63;100659.86;125843;1099;104334;-80
2021/05/11 12:47:43;;;;;;;7.00;2.67;;;;;;;23.74;27.86;100650.81;125712;1099;104159;-78
2021/05/11 12:50:20;;;;;;;5.33;2.60;;;;;;;23.76;27.47;100645.43;125744;1099;104280;-79
2021/05/11 12:52:51;;;;;;;13.40;2.70;;;;;;;23.80;27.66;100645.35;125711;1099;104149;-80
2021/05/11 12:55:55;;;;;;;6.23;2.80;;;;;;;23.85;27.67;100650.67;125766;1099;104143;-77
2021/05/11 12:58:40;;;;;;;3.67;2.60;;;;;;;23.77;27.49;100647.20;126048;1099;108084;-77
2021/05/11 13:01:31;;;;;;;4.97;2.80;;;;;;;23.67;27.49;100652.72;125927;1099;104175;-77
2021/05/11 13:20:57;;;;;;;4.63;2.40;;;;;;;23.75;27.70;100624.89;125869;1099;104245;-76
2021/05/11 13:26:21;;;;;;;9.80;2.80;;;;;;;23.80;27.61;100618.56;125154;1099;104156;-75
2021/05/11 13:28:55;;;;;;;5.73;2.90;;;;;;;23.73;27.83;100614.20;125090;1099;104165;-76
2021/05/11 13:31:32;;;;;;;4.47;2.57;;;;;;;23.67;27.80;100609.86;125999;1098;104178;-77
2021/05/11 13:34:12;;;;;;;13.80;2.98;;;;;;;23.67;28.24;100604.50;125864;1099;105238;-75
2021/05/11 13:36:43;;;;;;;6.33;2.77;;;;;;;23.69;28.02;100599.11;125996;1099;104264;-75
2021/05/11 13:39:13;;;;;;;2.90;2.00;;;;;;;23.76;28.13;100602.56;125939;1099;104245;-76
2021/05/11 13:41:45;;;;;;;4.63;2.13;;;;;;;23.76;28.23;100605.24;125970;1099;104220;-75
2021/05/11 13:44:16;;;;;;;5.40;2.00;;;;;;;23.71;27.96;100594.60;125936;1099;104274;-76
2021/05/11 13:46:46;;;;;;;6.93;1.93;;;;;;;23.69;28.18;100597.31;125982;1099;104235;-76
2021/05/11 13:49:19;;;;;;;7.13;2.00;;;;;;;23.68;28.16;100595.56;125973;1099;118984;-75
2021/05/11 13:51:49;;;;;;;4.13;1.90;;;;;;;23.66;28.00;100600.04;125966;1099;104246;-76
2021/05/11 13:54:19;;;;;;;5.07;2.10;;;;;;;23.64;28.23;100598.31;126002;1099;104172;-76
2021/05/11 13:57:00;;;;;;;7.50;2.30;;;;;;;23.59;27.89;100585.00;125971;1099;104227;-77
2021/05/11 14:02:33;;;;;;;4.10;2.20;;;;;;;23.54;28.14;100586.84;125980;1099;104227;-78
2021/05/11 14:05:08;;;;;;;7.50;2.33;;;;;;;23.59;28.49;100585.00;125927;1098;104310;-78
2021/05/11 14:07:37;;;;;;;7.30;2.60;;;;;;;23.60;28.51;100576.03;125738;1099;104176;-77
2021/05/11 14:10:13;;;;;;;6.77;2.43;;;;;;;23.60;28.55;100585.87;125935;1098;104284;-78
2021/05/11 14:12:42;;;;;;;3.23;2.23;;;;;;;23.60;28.58;100581.39;125957;1099;104169;-78
2021/05/11 14:15:16;;;;;;;5.10;1.97;;;;;;;23.58;28.39;100582.34;125899;1099;104275;-77
2021/05/11 14:17:48;;;;;;;5.93;2.20;;;;;;;23.53;28.25;100579.75;125992;1099;104153;-77
2021/05/11 14:20:19;;;;;;;4.63;2.17;;;;;;;23.53;28.40;100571.71;125979;1099;104152;-77
2021/05/11 14:23:10;;;;;;;6.90;2.20;;;;;;;23.52;28.44;100567.25;126000;1099;104139;-78
2021/05/11 14:25:41;;;;;;;7.67;2.20;;;;;;;23.50;28.33;100583.34;125873;1099;104268;-78
2021/05/11 14:28:11;;;;;;;5.90;2.20;;;;;;;23.47;28.80;100577.17;125831;1099;104143;-78
2021/05/11 14:30:41;;;;;;;6.20;2.37;;;;;;;23.46;28.77;100578.06;125612;1099;104567;-78
2021/05/11 14:33:11;;;;;;;6.47;2.47;;;;;;;23.48;28.40;100577.14;125918;1099;104179;-76
2021/05/11 14:35:40;;;;;;;7.13;2.13;;;;;;;23.51;28.69;100570.83;125659;1099;104178;-77
2021/05/11 14:38:10;;;;;;;4.10;2.30;;;;;;;23.50;28.78;100571.77;125763;1099;104204;-76
2021/05/11 14:40:40;;;;;;;8.13;2.40;;;;;;;23.51;28.38;100560.12;125770;1099;104175;-77
2021/05/11 14:43:11;;;;;;;5.00;2.37;;;;;;;23.48;28.59;100560.17;125773;1099;104245;-77
2021/05/11 14:45:41;;;;;;;7.73;2.40;;;;;;;23.47;28.95;100558.42;125694;1099;104153;-77
2021/05/11 14:48:13;;;;;;;7.30;2.30;;;;;;;23.45;28.44;100554.86;125623;1099;104265;-77
2021/05/11 14:50:51;;;;;;;5.23;2.53;;;;;;;23.44;28.98;100556.67;125666;1099;105619;-77
2021/05/11 14:53:49;;;;;;;3.43;2.40;;;;;;;23.47;28.69;100548.58;125876;1099;104342;-76
2021/05/11 14:56:21;;;;;;;4.43;2.03;;;;;;;23.48;28.82;100555.72;125724;1099;104210;-77
2021/05/11 14:58:52;;;;;;;5.43;2.30;;;;;;;23.47;28.90;100550.39;125753;1099;104236;-77
2021/05/11 15:01:25;;;;;;;7.90;2.40;;;;;;;23.45;29.02;100549.51;125778;1099;104854;-77
2021/05/11 15:03:56;;;;;;;7.57;2.50;;;;;;;23.46;28.67;100546.80;125914;1099;105062;-77
2021/05/11 15:06:25;;;;;;;4.90;2.50;;;;;;;23.45;28.69;100552.19;125938;1099;104169;-77
2021/05/11 15:08:55;;;;;;;5.00;2.20;;;;;;;23.40;28.82;100543.36;125819;1099;104271;-77
2021/05/11 15:11:25;;;;;;;9.27;2.50;;;;;;;23.36;28.69;100547.89;125947;1099;105158;-77
2021/05/11 15:13:56;;;;;;;7.20;2.50;;;;;;;23.35;28.69;100550.59;125958;1099;104278;-77